createdAt,value
2019-01-21T00:00:14.517Z,1005.12
2019-01-21T00:01:14.497Z,1005.13
2019-01-21T00:02:14.474Z,1005.10
2019-01-21T00:03:14.953Z,1005.11
2019-01-21T00:04:14.428Z,1005.11
2019-01-21T00:05:14.406Z,1005.11
2019-01-21T00:06:14.384Z,1005.08
2019-01-21T00:07:14.362Z,1005.06
2019-01-21T00:08:14.339Z,1005.05
2019-01-21T00:09:14.317Z,1005.03
2019-01-21T00:10:14.295Z,1005.04
2019-01-21T00:11:14.275Z,1005.07
2019-01-21T00:12:14.251Z,1004.99
2019-01-21T00:13:14.230Z,1005.04
2019-01-21T00:14:14.210Z,1005.03
2019-01-21T00:15:14.185Z,1004.99
2019-01-21T00:16:14.161Z,1005.00
2019-01-21T00:17:14.141Z,1004.94
2019-01-21T00:18:14.117Z,1004.95
2019-01-21T00:19:14.095Z,1004.96
2019-01-21T00:20:14.072Z,1004.96
2019-01-21T00:21:14.050Z,1004.94
2019-01-21T00:22:14.028Z,1004.93
2019-01-21T00:23:14.006Z,1004.96
2019-01-21T00:24:13.983Z,1004.90
2019-01-21T00:25:13.963Z,1004.94
2019-01-21T00:26:13.940Z,1004.97
2019-01-21T00:27:13.918Z,1004.96
2019-01-21T00:28:13.893Z,1004.98
2019-01-21T00:29:13.872Z,1005.02
2019-01-21T00:30:13.849Z,1005.04
2019-01-21T00:31:13.827Z,1005.07
2019-01-21T00:32:13.805Z,1005.08
2019-01-21T00:33:13.783Z,1005.12
2019-01-21T00:34:13.761Z,1005.07
2019-01-21T00:35:13.738Z,1005.09
2019-01-21T00:36:13.722Z,1005.07
2019-01-21T00:37:13.694Z,1005.08
2019-01-21T00:38:13.672Z,1005.05
2019-01-21T00:39:13.650Z,1005.09
2019-01-21T00:40:13.628Z,1005.11
2019-01-21T00:41:13.605Z,1005.07
2019-01-21T00:42:13.585Z,1005.09
2019-01-21T00:43:13.562Z,1005.11
2019-01-21T00:44:13.539Z,1005.10
2019-01-21T00:45:13.518Z,1005.09
2019-01-21T00:46:13.542Z,1005.09
2019-01-21T00:47:13.474Z,1005.08
2019-01-21T00:48:13.456Z,1005.10
2019-01-21T00:49:13.430Z,1005.06
2019-01-21T00:50:13.411Z,1005.07
2019-01-21T00:51:13.387Z,1005.04
2019-01-21T00:52:13.364Z,1005.04
2019-01-21T00:53:13.344Z,1004.99
2019-01-21T00:54:13.321Z,1005.03
2019-01-21T00:55:13.299Z,1005.02
2019-01-21T00:56:13.276Z,1005.02
2019-01-21T00:57:13.256Z,1005.06
2019-01-21T00:58:13.234Z,1005.09
2019-01-21T00:59:13.211Z,1005.07
2019-01-21T01:00:13.238Z,1005.06
2019-01-21T01:01:13.166Z,1005.05
2019-01-21T01:02:13.149Z,1005.09
2019-01-21T01:03:13.123Z,1005.10
2019-01-21T01:04:13.101Z,1005.08
2019-01-21T01:05:13.080Z,1005.10
2019-01-21T01:06:13.058Z,1005.03
2019-01-21T01:07:13.036Z,1005.12
2019-01-21T01:08:13.013Z,1005.13
2019-01-21T01:09:12.991Z,1005.12
2019-01-21T01:10:12.970Z,1005.12
2019-01-21T01:11:12.998Z,1005.11
2019-01-21T01:12:12.929Z,1005.15
2019-01-21T01:13:12.903Z,1005.14
2019-01-21T01:14:12.882Z,1005.13
2019-01-21T01:15:12.861Z,1005.17
2019-01-21T01:16:12.887Z,1005.17
2019-01-21T01:17:12.816Z,1005.16
2019-01-21T01:18:12.794Z,1005.16
2019-01-21T01:19:12.775Z,1005.14
2019-01-21T01:20:12.749Z,1005.13
2019-01-21T01:21:12.729Z,1005.10
2019-01-21T01:22:12.710Z,1005.11
2019-01-21T01:23:12.686Z,1005.14
2019-01-21T01:24:12.661Z,1005.11
2019-01-21T01:25:12.640Z,1005.11
2019-01-21T01:26:12.618Z,1005.11
2019-01-21T01:27:12.600Z,1005.09
2019-01-21T01:28:12.572Z,1005.09
2019-01-21T01:29:12.551Z,1005.11
2019-01-21T01:30:12.530Z,1005.08
2019-01-21T01:31:12.507Z,1005.10
2019-01-21T01:32:12.483Z,1005.13
2019-01-21T01:33:12.461Z,1005.14
2019-01-21T01:34:12.441Z,1005.17
2019-01-21T01:35:12.417Z,1005.17
2019-01-21T01:36:12.394Z,1005.19
2019-01-21T01:37:12.372Z,1005.23
2019-01-21T01:38:12.350Z,1005.26
2019-01-21T01:39:12.332Z,1005.28
2019-01-21T01:40:12.305Z,1005.29
2019-01-21T01:41:12.333Z,1005.31
2019-01-21T01:42:12.261Z,1005.32
2019-01-21T01:43:13.350Z,1005.28
2019-01-21T01:44:12.216Z,1005.29
2019-01-21T01:45:12.194Z,1005.32
2019-01-21T01:46:12.223Z,1005.35
2019-01-21T01:47:12.150Z,1005.35
2019-01-21T01:48:12.128Z,1005.39
2019-01-21T01:49:12.105Z,1005.43
2019-01-21T01:50:12.084Z,1005.41
2019-01-21T01:51:12.062Z,1005.44
2019-01-21T01:52:12.089Z,1005.50
2019-01-21T01:53:12.017Z,1005.50
2019-01-21T01:54:11.999Z,1005.54
2019-01-21T01:55:11.974Z,1005.51
2019-01-21T01:56:11.951Z,1005.52
2019-01-21T01:57:11.929Z,1005.51
2019-01-21T01:58:11.908Z,1005.52
2019-01-21T01:59:11.886Z,1005.49
2019-01-21T02:00:11.863Z,1005.48
2019-01-21T02:01:11.842Z,1005.47
2019-01-21T02:02:11.820Z,1005.48
2019-01-21T02:03:11.800Z,1005.51
2019-01-21T02:04:11.777Z,1005.55
2019-01-21T02:05:11.753Z,1005.57
2019-01-21T02:06:11.731Z,1005.59
2019-01-21T02:07:11.711Z,1005.60
2019-01-21T02:08:11.687Z,1005.57
2019-01-21T02:09:11.668Z,1005.58
2019-01-21T02:10:11.643Z,1005.59
2019-01-21T02:11:11.622Z,1005.53
2019-01-21T02:12:11.600Z,1005.57
2019-01-21T02:13:11.628Z,1005.62
2019-01-21T02:14:11.556Z,1005.63
2019-01-21T02:15:11.533Z,1005.65
2019-01-21T02:16:11.511Z,1005.65
2019-01-21T02:17:11.495Z,1005.68
2019-01-21T02:18:11.517Z,1005.72
2019-01-21T02:19:11.445Z,1005.71
2019-01-21T02:20:11.422Z,1005.70
2019-01-21T02:21:11.417Z,1005.71
2019-01-21T02:22:11.379Z,1005.77
2019-01-21T02:23:11.356Z,1005.72
2019-01-21T02:24:11.333Z,1005.73
2019-01-21T02:25:11.312Z,1005.69
2019-01-21T02:26:11.290Z,1005.68
2019-01-21T02:27:11.268Z,1005.66
2019-01-21T02:28:11.245Z,1005.64
2019-01-21T02:29:11.224Z,1005.65
2019-01-21T02:30:11.203Z,1005.64
2019-01-21T02:31:11.180Z,1005.65
2019-01-21T02:32:11.162Z,1005.66
2019-01-21T02:33:11.134Z,1005.65
2019-01-21T02:34:11.113Z,1005.66
2019-01-21T02:35:11.090Z,1005.67
2019-01-21T02:36:11.073Z,1005.68
2019-01-21T02:37:11.048Z,1005.68
2019-01-21T02:38:11.023Z,1005.69
2019-01-21T02:39:11.005Z,1005.71
2019-01-21T02:40:10.980Z,1005.72
2019-01-21T02:41:10.957Z,1005.75
2019-01-21T02:42:10.935Z,1005.73
2019-01-21T02:43:10.919Z,1005.80
2019-01-21T02:44:10.890Z,1005.77
2019-01-21T02:45:10.896Z,1005.75
2019-01-21T02:46:10.846Z,1005.78
2019-01-21T02:47:10.823Z,1005.77
2019-01-21T02:48:10.802Z,1005.76
2019-01-21T02:49:10.829Z,1005.76
2019-01-21T02:50:10.758Z,1005.74
2019-01-21T02:51:10.735Z,1005.77
2019-01-21T02:52:10.711Z,1005.74
2019-01-21T02:53:10.689Z,1005.76
2019-01-21T02:54:10.720Z,1005.77
2019-01-21T02:55:10.646Z,1005.75
2019-01-21T02:56:10.621Z,1005.78
2019-01-21T02:57:10.600Z,1005.73
2019-01-21T02:58:10.577Z,1005.76
2019-01-21T02:59:10.554Z,1005.81
2019-01-21T03:00:10.541Z,1005.75
2019-01-21T03:01:10.509Z,1005.72
2019-01-21T03:02:10.488Z,1005.74
2019-01-21T03:03:10.465Z,1005.72
2019-01-21T03:04:10.441Z,1005.74
2019-01-21T03:05:10.418Z,1005.71
2019-01-21T03:06:10.397Z,1005.69
2019-01-21T03:07:10.374Z,1005.70
2019-01-21T03:08:10.350Z,1005.68
2019-01-21T03:09:10.327Z,1005.69
2019-01-21T03:10:10.308Z,1005.69
2019-01-21T03:11:10.283Z,1005.70
2019-01-21T03:12:10.262Z,1005.70
2019-01-21T03:13:10.238Z,1005.71
2019-01-21T03:14:10.216Z,1005.70
2019-01-21T03:15:10.194Z,1005.67
2019-01-21T03:16:10.171Z,1005.69
2019-01-21T03:17:10.148Z,1005.66
2019-01-21T03:18:10.125Z,1005.65
2019-01-21T03:19:10.104Z,1005.67
2019-01-21T03:20:10.079Z,1005.63
2019-01-21T03:21:10.057Z,1005.63
2019-01-21T03:22:10.035Z,1005.64
2019-01-21T03:23:10.012Z,1005.64
2019-01-21T03:24:09.989Z,1005.60
2019-01-21T03:25:10.016Z,1005.59
2019-01-21T03:26:09.943Z,1005.58
2019-01-21T03:27:09.923Z,1005.59
2019-01-21T03:28:09.898Z,1005.51
2019-01-21T03:29:09.876Z,1005.54
2019-01-21T03:30:09.856Z,1005.51
2019-01-21T03:31:09.831Z,1005.54
2019-01-21T03:32:09.808Z,1005.57
2019-01-21T03:33:09.789Z,1005.52
2019-01-21T03:34:09.762Z,1005.57
2019-01-21T03:35:09.756Z,1005.48
2019-01-21T03:36:09.716Z,1005.52
2019-01-21T03:37:09.692Z,1005.51
2019-01-21T03:38:09.670Z,1005.49
2019-01-21T03:39:09.648Z,1005.49
2019-01-21T03:40:09.623Z,1005.47
2019-01-21T03:41:09.604Z,1005.50
2019-01-21T03:42:09.577Z,1005.51
2019-01-21T03:43:09.554Z,1005.48
2019-01-21T03:44:09.531Z,1005.48
2019-01-21T03:45:09.508Z,1005.49
2019-01-21T03:46:09.485Z,1005.50
2019-01-21T03:47:09.462Z,1005.48
2019-01-21T03:48:16.339Z,1005.50
2019-01-21T03:49:09.421Z,1005.47
2019-01-21T03:50:09.395Z,1005.46
2019-01-21T03:51:09.370Z,1005.44
2019-01-21T03:52:09.348Z,1005.46
2019-01-21T03:53:09.323Z,1005.43
2019-01-21T03:54:09.300Z,1005.46
2019-01-21T03:55:09.335Z,1005.44
2019-01-21T03:56:09.255Z,1005.49
2019-01-21T03:57:09.231Z,1005.45
2019-01-21T03:58:09.211Z,1005.46
2019-01-21T03:59:09.185Z,1005.45
2019-01-21T04:00:09.165Z,1005.48
2019-01-21T04:01:09.138Z,1005.42
2019-01-21T04:02:09.116Z,1005.41
2019-01-21T04:03:09.093Z,1005.44
2019-01-21T04:04:09.068Z,1005.44
2019-01-21T04:05:09.046Z,1005.39
2019-01-21T04:06:09.022Z,1005.41
2019-01-21T04:07:08.999Z,1005.39
2019-01-21T04:08:08.975Z,1005.40
2019-01-21T04:09:08.952Z,1005.37
2019-01-21T04:10:08.928Z,1005.39
2019-01-21T04:11:08.906Z,1005.36
2019-01-21T04:12:08.885Z,1005.39
2019-01-21T04:13:08.859Z,1005.41
2019-01-21T04:14:08.840Z,1005.43
2019-01-21T04:15:08.814Z,1005.40
2019-01-21T04:16:08.840Z,1005.38
2019-01-21T04:17:08.766Z,1005.38
2019-01-21T04:18:08.744Z,1005.42
2019-01-21T04:19:08.721Z,1005.41
2019-01-21T04:20:08.697Z,1005.42
2019-01-21T04:21:08.676Z,1005.37
2019-01-21T04:22:08.651Z,1005.41
2019-01-21T04:23:08.629Z,1005.35
2019-01-21T04:24:08.604Z,1005.38
2019-01-21T04:25:08.581Z,1005.36
2019-01-21T04:26:08.611Z,1005.32
2019-01-21T04:27:08.535Z,1005.32
2019-01-21T04:28:08.511Z,1005.33
2019-01-21T04:29:08.489Z,1005.30
2019-01-21T04:30:08.469Z,1005.37
2019-01-21T04:31:08.496Z,1005.37
2019-01-21T04:32:08.420Z,1005.36
2019-01-21T04:33:08.403Z,1005.34
2019-01-21T04:34:08.373Z,1005.37
2019-01-21T04:35:08.352Z,1005.39
2019-01-21T04:36:08.327Z,1005.41
2019-01-21T04:37:08.304Z,1005.41
2019-01-21T04:38:08.282Z,1005.41
2019-01-21T04:39:08.258Z,1005.46
2019-01-21T04:40:08.236Z,1005.48
2019-01-21T04:41:08.213Z,1005.42
2019-01-21T04:42:08.189Z,1005.40
2019-01-21T04:43:08.175Z,1005.40
2019-01-21T04:44:08.142Z,1005.41
2019-01-21T04:45:08.120Z,1005.40
2019-01-21T04:46:08.096Z,1005.41
2019-01-21T04:47:08.077Z,1005.43
2019-01-21T04:48:08.050Z,1005.39
2019-01-21T04:49:08.029Z,1005.40
2019-01-21T04:50:08.005Z,1005.37
2019-01-21T04:51:07.981Z,1005.39
2019-01-21T04:52:07.960Z,1005.39
2019-01-21T04:53:07.934Z,1005.40
2019-01-21T04:54:07.914Z,1005.39
2019-01-21T04:55:07.889Z,1005.37
2019-01-21T04:56:07.865Z,1005.38
2019-01-21T04:57:07.843Z,1005.34
2019-01-21T04:58:07.822Z,1005.41
2019-01-21T04:59:07.796Z,1005.36
2019-01-21T05:00:07.773Z,1005.39
2019-01-21T05:01:07.750Z,1005.39
2019-01-21T05:02:07.759Z,1005.39
2019-01-21T05:03:07.716Z,1005.36
2019-01-21T05:04:07.680Z,1005.39
2019-01-21T05:05:07.657Z,1005.37
2019-01-21T05:06:07.634Z,1005.34
2019-01-21T05:07:07.613Z,1005.35
2019-01-21T05:08:07.589Z,1005.30
2019-01-21T05:09:07.565Z,1005.35
2019-01-21T05:10:07.542Z,1005.37
2019-01-21T05:11:07.519Z,1005.35
2019-01-21T05:12:07.495Z,1005.39
2019-01-21T05:13:07.472Z,1005.35
2019-01-21T05:14:07.450Z,1005.37
2019-01-21T05:15:07.426Z,1005.39
2019-01-21T05:16:07.404Z,1005.37
2019-01-21T05:17:07.379Z,1005.41
2019-01-21T05:18:07.359Z,1005.41
2019-01-21T05:19:07.336Z,1005.39
2019-01-21T05:20:07.310Z,1005.39
2019-01-21T05:21:07.288Z,1005.38
2019-01-21T05:22:07.265Z,1005.37
2019-01-21T05:23:07.243Z,1005.37
2019-01-21T05:24:07.219Z,1005.33
2019-01-21T05:25:07.196Z,1005.38
2019-01-21T05:26:07.173Z,1005.35
2019-01-21T05:27:07.201Z,1005.37
2019-01-21T05:28:07.127Z,1005.37
2019-01-21T05:29:07.105Z,1005.43
2019-01-21T05:30:07.082Z,1005.42
2019-01-21T05:31:07.060Z,1005.44
2019-01-21T05:32:07.037Z,1005.41
2019-01-21T05:33:07.013Z,1005.39
2019-01-21T05:34:06.992Z,1005.39
2019-01-21T05:35:06.969Z,1005.41
2019-01-21T05:36:06.946Z,1005.41
2019-01-21T05:37:06.922Z,1005.41
2019-01-21T05:38:06.899Z,1005.41
2019-01-21T05:39:06.877Z,1005.44
2019-01-21T05:40:06.852Z,1005.43
2019-01-21T05:41:06.831Z,1005.46
2019-01-21T05:42:06.809Z,1005.46
2019-01-21T05:43:06.835Z,1005.43
2019-01-21T05:44:06.763Z,1005.41
2019-01-21T05:45:06.746Z,1005.43
2019-01-21T05:46:06.721Z,1005.42
2019-01-21T05:47:06.693Z,1005.44
2019-01-21T05:48:06.669Z,1005.44
2019-01-21T05:49:06.647Z,1005.44
2019-01-21T05:50:06.634Z,1005.44
2019-01-21T05:51:06.604Z,1005.42
2019-01-21T05:52:06.599Z,1005.41
2019-01-21T05:53:06.557Z,1005.41
2019-01-21T05:54:06.534Z,1005.41
2019-01-21T05:55:06.512Z,1005.42
2019-01-21T05:56:06.488Z,1005.39
2019-01-21T05:57:06.466Z,1005.41
2019-01-21T05:58:06.445Z,1005.43
2019-01-21T05:59:06.421Z,1005.41
2019-01-21T06:00:06.397Z,1005.41
2019-01-21T06:01:06.375Z,1005.40
2019-01-21T06:02:06.352Z,1005.39
2019-01-21T06:03:06.330Z,1005.38
2019-01-21T06:04:06.306Z,1005.40
2019-01-21T06:05:06.283Z,1005.40
2019-01-21T06:06:06.260Z,1005.43
2019-01-21T06:07:06.237Z,1005.45
2019-01-21T06:08:06.213Z,1005.45
2019-01-21T06:09:06.190Z,1005.44
2019-01-21T06:10:06.168Z,1005.41
2019-01-21T06:11:06.144Z,1005.43
2019-01-21T06:12:06.121Z,1005.40
2019-01-21T06:13:06.098Z,1005.39
2019-01-21T06:14:06.075Z,1005.42
2019-01-21T06:15:06.053Z,1005.40
2019-01-21T06:16:06.034Z,1005.42
2019-01-21T06:17:06.006Z,1005.44
2019-01-21T06:18:05.983Z,1005.49
2019-01-21T06:19:05.961Z,1005.49
2019-01-21T06:20:05.938Z,1005.45
2019-01-21T06:21:05.914Z,1005.46
2019-01-21T06:22:05.897Z,1005.48
2019-01-21T06:23:05.870Z,1005.47
2019-01-21T06:24:05.874Z,1005.47
2019-01-21T06:25:05.823Z,1005.51
2019-01-21T06:26:05.799Z,1005.54
2019-01-21T06:27:05.777Z,1005.60
2019-01-21T06:28:05.753Z,1005.61
2019-01-21T06:29:05.781Z,1005.63
2019-01-21T06:30:05.711Z,1005.64
2019-01-21T06:31:05.686Z,1005.62
2019-01-21T06:32:05.662Z,1005.61
2019-01-21T06:33:05.641Z,1005.61
2019-01-21T06:34:05.618Z,1005.60
2019-01-21T06:35:05.597Z,1005.66
2019-01-21T06:36:05.571Z,1005.64
2019-01-21T06:37:05.549Z,1005.64
2019-01-21T06:38:05.526Z,1005.63
2019-01-21T06:39:05.504Z,1005.63
2019-01-21T06:40:05.479Z,1005.67
2019-01-21T06:41:05.457Z,1005.62
2019-01-21T06:42:05.443Z,1005.65
2019-01-21T06:43:05.413Z,1005.66
2019-01-21T06:44:05.388Z,1005.65
2019-01-21T06:45:05.365Z,1005.65
2019-01-21T06:46:05.343Z,1005.67
2019-01-21T06:47:05.323Z,1005.68
2019-01-21T06:48:05.298Z,1005.65
2019-01-21T06:49:05.276Z,1005.64
2019-01-21T06:50:05.251Z,1005.62
2019-01-21T06:51:05.229Z,1005.62
2019-01-21T06:52:05.206Z,1005.60
2019-01-21T06:53:05.184Z,1005.63
2019-01-21T06:54:05.162Z,1005.60
2019-01-21T06:55:05.140Z,1005.62
2019-01-21T06:56:05.115Z,1005.64
2019-01-21T06:57:05.095Z,1005.62
2019-01-21T06:58:05.069Z,1005.63
2019-01-21T06:59:05.047Z,1005.64
2019-01-21T07:00:05.023Z,1005.65
2019-01-21T07:01:05.003Z,1005.67
2019-01-21T07:02:04.978Z,1005.65
2019-01-21T07:03:04.955Z,1005.70
2019-01-21T07:04:04.931Z,1005.74
2019-01-21T07:05:04.958Z,1005.72
2019-01-21T07:06:04.885Z,1005.76
2019-01-21T07:07:04.868Z,1005.74
2019-01-21T07:08:04.839Z,1005.73
2019-01-21T07:09:04.816Z,1005.73
2019-01-21T07:10:04.793Z,1005.73
2019-01-21T07:11:04.770Z,1005.71
2019-01-21T07:12:04.747Z,1005.73
2019-01-21T07:13:04.723Z,1005.69
2019-01-21T07:14:04.700Z,1005.70
2019-01-21T07:15:04.678Z,1005.73
2019-01-21T07:16:04.654Z,1005.74
2019-01-21T07:17:04.632Z,1005.79
2019-01-21T07:18:04.608Z,1005.74
2019-01-21T07:19:10.875Z,1005.77
2019-01-21T07:20:04.562Z,1005.77
2019-01-21T07:21:04.540Z,1005.75
2019-01-21T07:22:04.517Z,1005.78
2019-01-21T07:23:04.494Z,1005.75
2019-01-21T07:24:04.470Z,1005.81
2019-01-21T07:25:04.447Z,1005.80
2019-01-21T07:26:04.424Z,1005.81
2019-01-21T07:27:04.401Z,1005.80
2019-01-21T07:28:04.377Z,1005.83
2019-01-21T07:29:04.355Z,1005.83
2019-01-21T07:30:04.436Z,1005.85
2019-01-21T07:31:04.325Z,1005.80
2019-01-21T07:32:04.287Z,1005.81
2019-01-21T07:33:04.262Z,1005.84
2019-01-21T07:34:04.239Z,1005.85
2019-01-21T07:35:04.217Z,1005.85
2019-01-21T07:36:04.193Z,1005.91
2019-01-21T07:37:04.170Z,1005.89
2019-01-21T07:38:04.147Z,1005.88
2019-01-21T07:39:04.124Z,1005.93
2019-01-21T07:40:04.103Z,1005.92
2019-01-21T07:41:04.078Z,1005.97
2019-01-21T07:42:04.055Z,1005.96
2019-01-21T07:43:04.034Z,1005.97
2019-01-21T07:44:04.011Z,1005.95
2019-01-21T07:45:03.986Z,1006.04
2019-01-21T07:46:03.964Z,1006.01
2019-01-21T07:47:03.941Z,1006.07
2019-01-21T07:48:05.193Z,1006.07
2019-01-21T07:49:03.894Z,1006.06
2019-01-21T07:50:03.872Z,1006.04
2019-01-21T07:51:03.849Z,1006.02
2019-01-21T07:52:03.862Z,1006.05
2019-01-21T07:53:03.804Z,1006.07
2019-01-21T07:54:03.781Z,1006.09
2019-01-21T07:55:03.758Z,1006.13
2019-01-21T07:56:03.737Z,1006.12
2019-01-21T07:57:03.715Z,1006.15
2019-01-21T07:58:03.690Z,1006.16
2019-01-21T07:59:03.667Z,1006.17
2019-01-21T08:00:03.644Z,1006.15
2019-01-21T08:01:03.672Z,1006.17
2019-01-21T08:02:03.600Z,1006.21
2019-01-21T08:03:03.577Z,1006.23
2019-01-21T08:04:03.554Z,1006.21
2019-01-21T08:05:03.534Z,1006.21
2019-01-21T08:06:03.511Z,1006.21
2019-01-21T08:07:03.490Z,1006.24
2019-01-21T08:08:03.466Z,1006.22
2019-01-21T08:09:03.441Z,1006.26
2019-01-21T08:10:03.418Z,1006.31
2019-01-21T08:11:03.396Z,1006.31
2019-01-21T08:12:03.373Z,1006.33
2019-01-21T08:13:03.351Z,1006.34
2019-01-21T08:14:03.328Z,1006.38
2019-01-21T08:15:03.310Z,1006.40
2019-01-21T08:16:03.287Z,1006.42
2019-01-21T08:17:03.262Z,1006.44
2019-01-21T08:18:03.242Z,1006.47
2019-01-21T08:19:03.219Z,1006.47
2019-01-21T08:20:03.196Z,1006.49
2019-01-21T08:21:03.174Z,1006.50
2019-01-21T08:22:03.152Z,1006.49
2019-01-21T08:23:03.135Z,1006.50
2019-01-21T08:24:03.107Z,1006.53
2019-01-21T08:25:03.086Z,1006.51
2019-01-21T08:26:03.064Z,1006.55
2019-01-21T08:27:03.042Z,1006.51
2019-01-21T08:28:03.020Z,1006.53
2019-01-21T08:29:02.998Z,1006.55
2019-01-21T08:30:02.979Z,1006.54
2019-01-21T08:31:02.955Z,1006.52
2019-01-21T08:32:02.932Z,1006.51
2019-01-21T08:33:02.911Z,1006.46
2019-01-21T08:34:02.889Z,1006.45
2019-01-21T08:35:02.869Z,1006.49
2019-01-21T08:36:02.845Z,1006.47
2019-01-21T08:37:02.824Z,1006.54
2019-01-21T08:38:02.803Z,1006.51
2019-01-21T08:39:02.780Z,1006.56
2019-01-21T08:40:02.759Z,1006.57
2019-01-21T08:41:02.736Z,1006.57
2019-01-21T08:42:02.715Z,1006.60
2019-01-21T08:43:02.693Z,1006.62
2019-01-21T08:44:02.671Z,1006.66
2019-01-21T08:45:02.649Z,1006.68
2019-01-21T08:46:02.628Z,1006.68
2019-01-21T08:47:02.607Z,1006.71
2019-01-21T08:48:02.584Z,1006.69
2019-01-21T08:49:02.563Z,1006.72
2019-01-21T08:50:02.542Z,1006.67
2019-01-21T08:51:02.521Z,1006.71
2019-01-21T08:52:02.503Z,1006.68
2019-01-21T08:53:02.480Z,1006.66
2019-01-21T08:54:02.456Z,1006.66
2019-01-21T08:55:02.435Z,1006.64
2019-01-21T08:56:02.414Z,1006.67
2019-01-21T08:57:02.442Z,1006.66
2019-01-21T08:58:02.370Z,1006.69
2019-01-21T08:59:02.350Z,1006.70
2019-01-21T09:00:02.327Z,1006.70
2019-01-21T09:01:02.307Z,1006.72
2019-01-21T09:02:02.287Z,1006.72
2019-01-21T09:03:02.264Z,1006.68
2019-01-21T09:04:02.243Z,1006.72
2019-01-21T09:05:02.222Z,1006.75
2019-01-21T09:06:02.201Z,1006.78
2019-01-21T09:07:02.180Z,1006.78
2019-01-21T09:08:02.160Z,1006.78
2019-01-21T09:09:02.137Z,1006.76
2019-01-21T09:10:02.117Z,1006.75
2019-01-21T09:11:02.097Z,1006.74
2019-01-21T09:12:02.073Z,1006.77
2019-01-21T09:13:02.053Z,1006.78
2019-01-21T09:14:02.033Z,1006.82
2019-01-21T09:15:02.011Z,1006.85
2019-01-21T09:16:01.990Z,1006.79
2019-01-21T09:17:01.969Z,1006.79
2019-01-21T09:18:01.948Z,1006.78
2019-01-21T09:19:01.929Z,1006.77
2019-01-21T09:20:01.914Z,1006.81
2019-01-21T09:21:01.885Z,1006.75
2019-01-21T09:22:01.865Z,1006.80
2019-01-21T09:23:01.883Z,1006.80
2019-01-21T09:24:01.823Z,1006.80
2019-01-21T09:25:01.802Z,1006.79
2019-01-21T09:26:01.781Z,1006.83
2019-01-21T09:27:01.760Z,1006.79
2019-01-21T09:28:01.739Z,1006.78
2019-01-21T09:29:01.719Z,1006.79
2019-01-21T09:30:01.700Z,1006.77
2019-01-21T09:31:01.678Z,1006.77
2019-01-21T09:32:01.657Z,1006.78
2019-01-21T09:33:01.637Z,1006.73
2019-01-21T09:34:01.617Z,1006.66
2019-01-21T09:35:01.596Z,1006.71
2019-01-21T09:36:01.574Z,1006.68
2019-01-21T09:37:01.554Z,1006.70
2019-01-21T09:38:01.534Z,1006.70
2019-01-21T09:39:01.513Z,1006.70
2019-01-21T09:40:01.495Z,1006.72
2019-01-21T09:41:01.472Z,1006.69
2019-01-21T09:42:01.453Z,1006.71
2019-01-21T09:43:01.431Z,1006.70
2019-01-21T09:44:01.409Z,1006.74
2019-01-21T09:45:01.391Z,1006.75
2019-01-21T09:46:01.370Z,1006.73
2019-01-21T09:47:01.752Z,1006.75
2019-01-21T09:48:01.328Z,1006.77
2019-01-21T09:49:01.309Z,1006.73
2019-01-21T09:50:01.289Z,1006.76
2019-01-21T09:51:01.269Z,1006.77
2019-01-21T09:52:01.249Z,1006.77
2019-01-21T09:53:01.230Z,1006.79
2019-01-21T09:54:01.208Z,1006.80
2019-01-21T09:55:01.189Z,1006.78
2019-01-21T09:56:01.168Z,1006.79
2019-01-21T09:57:01.151Z,1006.80
2019-01-21T09:58:01.127Z,1006.77
2019-01-21T09:59:01.108Z,1006.76
2019-01-21T10:00:01.101Z,1006.76
2019-01-21T10:01:01.068Z,1006.81
2019-01-21T10:02:01.047Z,1006.81
2019-01-21T10:03:01.028Z,1006.79
2019-01-21T10:04:01.008Z,1006.81
2019-01-21T10:05:00.988Z,1006.82
2019-01-21T10:06:00.968Z,1006.81
2019-01-21T10:07:00.949Z,1006.84
2019-01-21T10:08:01.412Z,1006.85
2019-01-21T10:09:00.909Z,1006.85
2019-01-21T10:10:00.890Z,1006.84
2019-01-21T10:11:03.558Z,1006.86
2019-01-21T10:12:00.851Z,1006.79
2019-01-21T10:13:01.082Z,1006.77
2019-01-21T10:14:00.812Z,1006.75
2019-01-21T10:15:00.793Z,1006.77
2019-01-21T10:16:00.774Z,1006.73
2019-01-21T10:17:00.755Z,1006.76
2019-01-21T10:18:00.736Z,1006.79
2019-01-21T10:19:00.717Z,1006.78
2019-01-21T10:20:00.700Z,1006.79
2019-01-21T10:21:00.677Z,1006.76
2019-01-21T10:22:00.659Z,1006.71
2019-01-21T10:23:00.640Z,1006.69
2019-01-21T10:24:00.621Z,1006.69
2019-01-21T10:25:00.618Z,1006.65
2019-01-21T10:26:00.585Z,1006.57
2019-01-21T10:27:00.566Z,1006.59
2019-01-21T10:28:00.545Z,1006.54
2019-01-21T10:29:00.528Z,1006.52
2019-01-21T10:30:00.509Z,1006.50
2019-01-21T10:31:00.492Z,1006.49
2019-01-21T10:32:00.473Z,1006.51
2019-01-21T10:33:00.454Z,1006.53
2019-01-21T10:34:00.435Z,1006.50
2019-01-21T10:35:00.418Z,1006.52
2019-01-21T10:36:00.404Z,1006.45
2019-01-21T10:37:00.386Z,1006.46
2019-01-21T10:38:00.372Z,1006.47
2019-01-21T10:39:00.358Z,1006.48
2019-01-21T10:40:00.380Z,1006.47
2019-01-21T10:41:00.331Z,1006.46
2019-01-21T10:42:00.318Z,1006.53
2019-01-21T10:43:00.308Z,1006.51
2019-01-21T10:44:00.294Z,1006.56
2019-01-21T10:45:00.283Z,1006.60
2019-01-21T10:46:00.271Z,1006.53
2019-01-21T10:47:00.260Z,1006.54
2019-01-21T10:48:00.249Z,1006.54
2019-01-21T10:49:00.288Z,1006.55
2019-01-21T10:50:00.267Z,1006.52
2019-01-21T10:51:00.216Z,1006.54
2019-01-21T10:52:00.255Z,1006.55
2019-01-21T10:53:00.243Z,1006.55
2019-01-21T10:54:00.340Z,1006.58
2019-01-21T10:55:00.230Z,1006.57
2019-01-21T10:56:00.161Z,1006.54
2019-01-21T10:57:00.201Z,1006.59
2019-01-21T10:58:00.242Z,1006.57
2019-01-21T10:59:00.131Z,1006.56
2019-01-21T11:00:00.263Z,1006.55
2019-01-21T11:01:00.113Z,1006.53
2019-01-21T11:02:00.103Z,1006.49
2019-01-21T11:03:00.090Z,1006.50
2019-01-21T11:04:00.077Z,1006.51
2019-01-21T11:05:00.146Z,1006.51
2019-01-21T11:06:00.055Z,1006.53
2019-01-21T11:07:00.047Z,1006.53
2019-01-21T11:08:00.036Z,1006.50
2019-01-21T11:09:00.027Z,1006.49
2019-01-21T11:10:00.012Z,1006.45
2019-01-21T11:11:00.002Z,1006.45
2019-01-21T11:11:59.990Z,1006.41
2019-01-21T11:12:59.982Z,1006.38
2019-01-21T11:13:59.970Z,1006.36
2019-01-21T11:14:59.961Z,1006.32
2019-01-21T11:15:59.947Z,1006.28
2019-01-21T11:16:59.935Z,1006.29
2019-01-21T11:17:59.924Z,1006.28
2019-01-21T11:18:59.914Z,1006.23
2019-01-21T11:20:03.988Z,1006.27
2019-01-21T11:20:59.892Z,1006.23
2019-01-21T11:21:59.882Z,1006.21
2019-01-21T11:22:59.872Z,1006.16
2019-01-21T11:23:59.860Z,1006.15
2019-01-21T11:24:59.851Z,1006.16
2019-01-21T11:25:59.841Z,1006.15
2019-01-21T11:26:59.829Z,1006.10
2019-01-21T11:27:59.817Z,1006.07
2019-01-21T11:28:59.808Z,1006.08
2019-01-21T11:29:59.796Z,1006.05
2019-01-21T11:30:59.790Z,1006.04
2019-01-21T11:31:59.777Z,1006.00
2019-01-21T11:32:59.770Z,1005.97
2019-01-21T11:33:59.757Z,1005.98
2019-01-21T11:34:59.748Z,1005.96
2019-01-21T11:35:59.738Z,1005.99
2019-01-21T11:36:59.727Z,1005.99
2019-01-21T11:37:59.717Z,1005.98
2019-01-21T11:38:59.709Z,1005.97
2019-01-21T11:39:59.697Z,1005.97
2019-01-21T11:40:59.688Z,1005.94
2019-01-21T11:41:59.680Z,1005.94
2019-01-21T11:42:59.668Z,1005.93
2019-01-21T11:43:59.657Z,1005.93
2019-01-21T11:44:59.698Z,1005.94
2019-01-21T11:45:59.638Z,1005.96
2019-01-21T11:46:59.628Z,1006.01
2019-01-21T11:47:59.617Z,1005.98
2019-01-21T11:48:59.608Z,1005.98
2019-01-21T11:49:59.598Z,1006.02
2019-01-21T11:50:59.588Z,1006.05
2019-01-21T11:51:59.577Z,1006.07
2019-01-21T11:52:59.567Z,1006.06
2019-01-21T11:53:59.557Z,1006.08
2019-01-21T11:54:59.548Z,1006.05
2019-01-21T11:55:59.538Z,1006.07
2019-01-21T11:56:59.529Z,1006.06
2019-01-21T11:57:59.518Z,1006.08
2019-01-21T11:58:59.539Z,1006.07
2019-01-21T11:59:59.503Z,1006.09
2019-01-21T12:00:59.489Z,1006.10
2019-01-21T12:01:59.479Z,1006.09
2019-01-21T12:02:59.470Z,1006.09
2019-01-21T12:03:59.460Z,1006.10
2019-01-21T12:04:59.453Z,1006.06